Time;durP1;ratioP1;P1;durP2;ratioP2;P2;SDS_P1;SDS_P2;PMS_P1;PMS_P2;Temp;Humidity;BMP_temperature;BMP_pressure;BME280_temperature;BME280_humidity;BME280_pressure;Samples;Min_cycle;Max_cycle;Signal;HPM_P1;HPM_P2
2024/01/05 17:41:12;;;;;;;4.07;1.47;;;6.90;99.90;;;;;;2581773;23;20262;-71
2024/01/05 17:43:41;;;;;;;2.37;1.27;;;7.00;99.90;;;;;;4861626;29;20251;-71
2024/01/05 17:46:09;;;;;;;3.30;1.30;;;7.00;99.90;;;;;;4860691;29;20212;-71
2024/01/05 17:48:36;;;;;;;1.43;1.20;;;6.90;99.90;;;;;;4870053;29;20342;-71
2024/01/05 17:51:03;;;;;;;2.70;1.00;;;6.90;99.90;;;;;;4860596;29;20219;-74
2024/01/05 17:53:31;;;;;;;2.07;1.20;;;6.90;99.90;;;;;;4860903;29;20290;-73
2024/01/05 17:55:58;;;;;;;1.83;1.10;;;6.90;99.90;;;;;;4860574;29;20226;-73
2024/01/05 17:58:32;;;;;;;2.73;1.40;;;6.80;99.90;;;;;;4860285;29;20267;-76
2024/01/05 18:01:00;;;;;;;6.17;1.50;;;6.80;99.90;;;;;;4840288;29;20262;-72
2024/01/05 18:03:27;;;;;;;2.10;1.37;;;6.90;99.90;;;;;;4848059;29;20302;-72
2024/01/05 18:05:54;;;;;;;3.13;1.50;;;6.80;99.90;;;;;;4859166;29;20624;-72
2024/01/05 18:08:21;;;;;;;2.10;1.27;;;6.80;99.90;;;;;;4858995;29;20326;-72
2024/01/05 18:10:57;;;;;;;2.80;1.63;;;6.90;99.90;;;;;;4858485;29;20212;-72
2024/01/05 18:13:34;;;;;;;2.57;1.33;;;6.90;99.90;;;;;;4858551;29;20206;-72
2024/01/05 18:16:09;;;;;;;4.73;1.53;;;6.90;99.90;;;;;;4858745;29;20524;-75
2024/01/05 18:18:39;;;;;;;1.83;1.20;;;6.80;99.90;;;;;;4858797;29;20234;-72
2024/01/05 18:21:07;;;;;;;2.60;1.10;;;6.80;99.90;;;;;;4859128;29;20549;-71
2024/01/05 18:23:34;;;;;;;2.80;1.17;;;6.80;99.90;;;;;;4858479;29;20336;-72
2024/01/05 18:26:01;;;;;;;2.50;1.13;;;6.90;99.90;;;;;;4853523;29;20251;-74
2024/01/05 18:28:29;;;;;;;2.17;1.20;;;6.90;99.90;;;;;;4858762;29;20296;-72
2024/01/05 18:30:57;;;;;;;1.43;0.80;;;6.90;99.90;;;;;;4860018;29;20271;-71
2024/01/05 18:33:27;;;;;;;2.00;1.10;;;6.90;99.90;;;;;;4860980;29;20231;-71
2024/01/05 18:35:57;;;;;;;1.80;1.30;;;6.90;99.90;;;;;;4862380;29;20255;-73
2024/01/05 18:38:25;;;;;;;2.93;1.23;;;7.00;99.90;;;;;;4858303;29;20224;-72
2024/01/05 18:40:53;;;;;;;1.70;0.97;;;7.00;99.90;;;;;;4860415;29;20223;-72
2024/01/05 18:43:21;;;;;;;3.20;1.43;;;7.00;99.90;;;;;;4859480;29;20243;-72
2024/01/05 18:46:12;;;;;;;2.00;1.20;;;7.10;99.90;;;;;;4860436;29;20216;-72
2024/01/05 18:48:43;;;;;;;3.57;0.90;;;7.10;99.90;;;;;;4860280;29;20260;-72
2024/01/05 18:51:17;;;;;;;1.20;0.97;;;7.20;99.90;;;;;;4860300;29;20272;-76
2024/01/05 18:53:45;;;;;;;1.77;0.97;;;7.10;99.90;;;;;;4848562;29;20295;-72
2024/01/05 18:56:13;;;;;;;2.37;1.10;;;7.20;99.90;;;;;;4859891;29;20215;-72
2024/01/05 18:58:42;;;;;;;2.00;1.10;;;7.20;99.90;;;;;;4860299;29;20599;-71
2024/01/05 19:01:11;;;;;;;1.63;1.00;;;7.20;99.90;;;;;;4860317;29;20204;-71
2024/01/05 19:03:41;;;;;;;1.40;1.00;;;7.20;99.90;;;;;;4860181;29;20212;-72
2024/01/05 19:06:09;;;;;;;1.67;0.90;;;7.20;99.90;;;;;;4855199;29;20209;-71
2024/01/05 19:08:44;;;;;;;2.57;1.20;;;7.20;99.90;;;;;;4860464;29;20246;-72
2024/01/05 19:11:12;;;;;;;1.60;1.03;;;7.20;99.90;;;;;;4863811;29;20216;-71
2024/01/05 19:13:39;;;;;;;1.57;1.00;;;7.20;99.90;;;;;;4863427;29;20304;-71
2024/01/05 19:16:07;;;;;;;1.90;0.90;;;7.30;99.90;;;;;;4863987;29;20212;-72
2024/01/05 19:18:35;;;;;;;1.67;1.00;;;7.20;99.90;;;;;;4863382;29;20267;-71
2024/01/05 19:21:08;;;;;;;2.40;0.77;;;7.20;99.90;;;;;;4863333;29;20212;-72
2024/01/05 19:23:35;;;;;;;1.63;0.80;;;7.20;99.90;;;;;;4863300;29;20247;-71
2024/01/05 19:26:03;;;;;;;3.67;1.00;;;7.20;99.90;;;;;;4863839;29;20216;-72
2024/01/05 19:28:34;;;;;;;0.90;0.63;;;7.30;99.90;;;;;;4863297;29;20235;-72
2024/01/05 19:31:04;;;;;;;1.23;0.80;;;7.30;99.90;;;;;;4863116;29;20242;-72
2024/01/05 19:33:34;;;;;;;1.40;0.90;;;7.40;99.90;;;;;;4863064;29;20216;-72
2024/01/05 19:36:02;;;;;;;1.33;0.90;;;7.40;99.90;;;;;;4862362;29;20734;-73
2024/01/05 19:38:31;;;;;;;1.10;0.90;;;7.30;99.90;;;;;;4863050;29;20236;-72
2024/01/05 19:41:06;;;;;;;3.90;1.13;;;7.30;99.90;;;;;;4863035;29;20223;-72
2024/01/05 19:43:37;;;;;;;1.70;1.17;;;7.40;99.90;;;;;;4862708;29;20250;-72
2024/01/05 19:46:08;;;;;;;1.70;1.00;;;7.40;99.90;;;;;;4862736;29;20208;-74
2024/01/05 19:48:36;;;;;;;1.97;1.13;;;7.50;99.90;;;;;;4863151;29;20244;-72
2024/01/05 19:51:12;;;;;;;2.20;1.10;;;7.50;99.90;;;;;;4862978;29;20216;-72
2024/01/05 19:53:41;;;;;;;1.70;1.10;;;7.50;99.90;;;;;;4863041;29;20268;-74
2024/01/05 19:56:09;;;;;;;1.47;1.17;;;7.60;99.90;;;;;;4862303;29;20208;-72
2024/01/05 19:58:36;;;;;;;2.03;1.00;;;7.60;99.90;;;;;;4862309;29;20243;-73
2024/01/05 20:01:04;;;;;;;1.70;1.13;;;7.70;99.90;;;;;;4862963;29;20236;-75
2024/01/05 20:03:31;;;;;;;2.43;1.00;;;7.70;99.90;;;;;;4862803;29;20247;-73
2024/01/05 20:05:59;;;;;;;2.63;1.00;;;7.80;99.90;;;;;;4861630;29;20237;-72
2024/01/05 20:08:27;;;;;;;2.37;1.10;;;7.60;99.90;;;;;;4861391;29;20595;-73
2024/01/05 20:10:55;;;;;;;1.47;1.10;;;7.70;99.90;;;;;;4861018;29;20541;-72
2024/01/05 20:13:23;;;;;;;1.63;1.07;;;7.70;99.90;;;;;;4861545;29;20521;-72
2024/01/05 20:15:50;;;;;;;2.33;1.20;;;7.70;99.90;;;;;;4861860;29;20212;-76
2024/01/05 20:18:18;;;;;;;3.63;1.10;;;7.70;99.90;;;;;;4861799;29;20793;-73
2024/01/05 20:20:45;;;;;;;2.47;1.20;;;7.60;99.90;;;;;;4861070;29;20241;-75
2024/01/05 20:23:13;;;;;;;2.77;1.60;;;7.70;99.90;;;;;;4861625;29;20224;-73
2024/01/05 20:25:41;;;;;;;3.93;1.27;;;7.80;99.90;;;;;;4861562;29;20251;-74
2024/01/05 20:28:09;;;;;;;3.40;1.43;;;7.90;99.90;;;;;;4861327;29;20703;-74
2024/01/05 20:30:37;;;;;;;2.67;1.40;;;8.00;99.90;;;;;;4851836;29;20756;-71
2024/01/05 20:33:05;;;;;;;3.40;1.70;;;8.00;99.90;;;;;;4861792;29;20219;-72
2024/01/05 20:35:32;;;;;;;5.00;1.70;;;8.00;99.90;;;;;;4861577;29;20246;-74
2024/01/05 20:37:59;;;;;;;2.33;1.50;;;8.10;99.90;;;;;;4861053;29;20604;-73
2024/01/05 20:40:27;;;;;;;2.03;1.53;;;8.10;99.90;;;;;;4860952;29;20790;-75
2024/01/05 20:42:55;;;;;;;2.03;1.60;;;8.20;99.90;;;;;;4861317;29;20272;-73
2024/01/05 20:45:24;;;;;;;2.07;1.53;;;8.20;99.90;;;;;;4860975;29;20215;-72
2024/01/05 20:47:51;;;;;;;2.77;1.17;;;8.20;99.90;;;;;;4861091;29;20291;-74
2024/01/05 20:50:19;;;;;;;2.57;1.50;;;8.20;99.90;;;;;;4861997;29;20294;-74
2024/01/05 20:52:46;;;;;;;2.07;1.30;;;8.20;99.90;;;;;;4860814;29;20295;-73
2024/01/05 20:55:14;;;;;;;4.23;1.40;;;8.20;99.90;;;;;;4860734;29;20651;-71
2024/01/05 20:57:41;;;;;;;1.83;1.30;;;8.20;99.90;;;;;;4860984;29;20264;-72
2024/01/05 21:00:09;;;;;;;3.80;1.30;;;8.30;99.90;;;;;;4861048;29;20231;-71
2024/01/05 21:02:38;;;;;;;2.10;1.40;;;8.30;99.90;;;;;;4861053;29;20293;-75
2024/01/05 21:05:06;;;;;;;2.33;1.43;;;8.20;99.90;;;;;;4860982;29;20220;-73
2024/01/05 21:07:35;;;;;;;3.93;1.57;;;8.20;99.90;;;;;;4859825;29;20211;-73
2024/01/05 21:10:03;;;;;;;2.77;1.30;;;8.20;99.90;;;;;;4867098;29;20291;-72
2024/01/05 21:12:31;;;;;;;2.70;1.30;;;8.30;99.90;;;;;;4868344;29;20691;-72
2024/01/05 21:14:58;;;;;;;2.37;1.37;;;8.30;99.90;;;;;;4869815;29;20319;-74
2024/01/05 21:17:25;;;;;;;2.13;1.40;;;8.30;99.90;;;;;;4864692;29;20675;-72
2024/01/05 21:19:54;;;;;;;2.70;1.27;;;8.30;99.90;;;;;;4862817;29;20232;-71
2024/01/05 21:22:21;;;;;;;2.73;1.30;;;8.20;99.90;;;;;;4850388;29;20216;-72
2024/01/05 21:24:50;;;;;;;2.27;1.00;;;8.10;99.90;;;;;;4861827;29;20215;-71
2024/01/05 21:27:18;;;;;;;2.27;0.97;;;8.10;99.90;;;;;;4861902;29;20638;-72
2024/01/05 21:29:45;;;;;;;1.73;1.10;;;8.10;99.90;;;;;;4861582;29;20291;-73
2024/01/05 21:32:12;;;;;;;3.17;1.00;;;8.10;99.90;;;;;;4860395;29;20233;-73
2024/01/05 21:34:40;;;;;;;2.33;1.20;;;8.10;99.90;;;;;;4860584;29;20911;-71
2024/01/05 21:37:09;;;;;;;2.50;0.80;;;8.10;99.90;;;;;;4860598;29;20223;-71
2024/01/05 21:39:37;;;;;;;1.37;0.80;;;8.10;99.90;;;;;;4859840;29;20263;-74
2024/01/05 21:42:05;;;;;;;4.67;1.10;;;8.10;99.90;;;;;;4860144;29;20220;-71
2024/01/05 21:44:32;;;;;;;2.47;0.93;;;8.10;99.90;;;;;;4860230;29;20702;-73
2024/01/05 21:47:00;;;;;;;2.53;0.80;;;8.10;99.90;;;;;;4860544;29;20208;-72
2024/01/05 21:49:28;;;;;;;2.13;1.10;;;8.20;99.90;;;;;;4860363;29;20350;-72
2024/01/05 21:51:56;;;;;;;3.13;1.27;;;8.30;99.90;;;;;;4860284;29;20204;-72
2024/01/05 21:54:25;;;;;;;2.17;0.90;;;8.20;99.90;;;;;;4859993;29;20208;-71
2024/01/05 21:56:52;;;;;;;4.93;1.30;;;8.30;99.90;;;;;;4860406;29;20318;-72
2024/01/05 21:59:20;;;;;;;3.80;1.20;;;8.20;99.90;;;;;;4860379;29;20864;-71
2024/01/05 22:01:47;;;;;;;1.80;1.30;;;8.30;99.90;;;;;;4860054;29;20332;-71
2024/01/05 22:04:14;;;;;;;1.63;0.97;;;8.20;99.90;;;;;;4860159;29;20219;-72
2024/01/05 22:06:42;;;;;;;3.97;1.00;;;8.20;99.90;;;;;;4859717;29;20224;-74
